Time;durP1;ratioP1;P1;durP2;ratioP2;P2;SDS_P1;SDS_P2;PMS_P1;PMS_P2;Temp;Humidity;BMP_temperature;BMP_pressure;BME280_temperature;BME280_humidity;BME280_pressure;Samples;Min_cycle;Max_cycle;Signal;HPM_P1;HPM_P2
2022/04/01 00:00:03;;;;;;;6.43;3.30;;;;;;;1.79;46.00;99466.88;5003340;28;20212;-72
2022/04/01 00:02:38;;;;;;;6.43;3.30;;;;;;;1.77;46.00;99466.03;5003931;28;20255;-72
2022/04/01 00:05:06;;;;;;;7.80;3.37;;;;;;;1.75;45.57;99462.63;5012974;28;20206;-72
2022/04/01 00:07:33;;;;;;;7.90;3.73;;;;;;;1.71;46.14;99468.69;5003725;28;20271;-72
2022/04/01 00:09:59;;;;;;;7.93;3.70;;;;;;;1.68;45.60;99466.13;4998458;28;20210;-71
2022/04/01 00:12:27;;;;;;;9.13;3.30;;;;;;;1.64;45.67;99464.47;5002272;28;20232;-72
2022/04/01 00:14:53;;;;;;;7.10;3.50;;;;;;;1.63;45.43;99471.28;5008082;28;20206;-71
2022/04/01 00:17:20;;;;;;;5.17;3.17;;;;;;;1.59;45.63;99467.06;5001080;28;20206;-71
2022/04/01 00:19:47;;;;;;;8.00;3.47;;;;;;;1.56;45.25;99464.50;4999929;28;20206;-72
2022/04/01 00:22:13;;;;;;;5.87;3.43;;;;;;;1.55;45.21;99469.66;5004694;28;20705;-71
2022/04/01 00:24:39;;;;;;;4.83;3.40;;;;;;;1.54;45.06;99461.09;5005277;28;20205;-71
2022/04/01 00:27:06;;;;;;;7.10;3.20;;;;;;;1.55;44.43;99467.97;5007060;28;20204;-71
2022/04/01 00:29:34;;;;;;;6.20;3.33;;;;;;;1.56;44.79;99463.66;5009742;28;20205;-71
2022/04/01 00:32:01;;;;;;;9.77;4.10;;;;;;;1.54;44.74;99463.66;5005896;28;20225;-71
2022/04/01 00:34:28;;;;;;;15.57;6.23;;;;;;;1.56;44.22;99467.06;5020236;28;20218;-72
2022/04/01 00:36:55;;;;;;;10.23;5.77;;;;;;;1.56;44.44;99464.50;4999363;28;20196;-72
2022/04/01 00:39:23;;;;;;;19.77;9.73;;;;;;;1.55;44.34;99467.09;5004359;28;20565;-71
2022/04/01 00:41:51;;;;;;;6.93;3.53;;;;;;;1.56;43.80;99467.06;5007743;28;20312;-72
2022/04/01 00:44:20;;;;;;;7.73;4.03;;;;;;;1.57;44.11;99473.09;4999814;28;20211;-71
2022/04/01 00:46:50;;;;;;;6.23;3.57;;;;;;;1.53;43.88;99469.69;4997621;28;20208;-72
2022/04/01 00:49:18;;;;;;;6.37;3.70;;;;;;;1.52;44.27;99471.38;5002935;28;20750;-72
2022/04/01 00:51:46;;;;;;;7.87;5.27;;;;;;;1.50;44.00;99470.56;4994667;28;20254;-72
2022/04/01 00:54:13;;;;;;;6.57;3.83;;;;;;;1.49;43.91;99468.84;4995476;28;20213;-72
2022/04/01 00:56:40;;;;;;;7.77;3.23;;;;;;;1.47;43.86;99468.00;5000874;28;20273;-72
2022/04/01 00:59:08;;;;;;;5.73;3.37;;;;;;;1.46;43.85;99470.56;5005273;28;21371;-72
2022/04/01 01:01:35;;;;;;;7.27;4.87;;;;;;;1.44;44.34;99469.72;5002826;28;20454;-72
2022/04/01 01:04:05;;;;;;;6.67;3.00;;;;;;;1.44;43.88;99467.16;5006039;28;20191;-72
2022/04/01 01:06:33;;;;;;;8.43;3.20;;;;;;;1.42;44.17;99456.06;5002884;28;20245;-72
2022/04/01 01:09:00;;;;;;;5.37;3.00;;;;;;;1.40;43.91;99466.34;5007159;28;20574;-72
2022/04/01 01:11:27;;;;;;;8.17;3.03;;;;;;;1.39;44.10;99456.06;5001307;28;20288;-72
2022/04/01 01:13:54;;;;;;;5.23;2.90;;;;;;;1.39;43.64;99458.63;5003355;28;20213;-71
2022/04/01 01:16:21;;;;;;;5.10;2.70;;;;;;;1.39;43.46;99459.50;5002960;28;20261;-72
2022/04/01 01:19:00;;;;;;;4.87;3.30;;;;;;;1.38;44.01;99462.09;5005674;28;20209;-72
2022/04/01 01:21:28;;;;;;;8.50;3.40;;;;;;;1.36;44.02;99462.09;5025457;28;20203;-71
2022/04/01 01:24:00;;;;;;;5.37;2.97;;;;;;;1.36;43.93;99456.97;5008774;28;20203;-72
2022/04/01 01:26:28;;;;;;;4.60;2.70;;;;;;;1.36;43.64;99454.41;5010590;28;20208;-71
2022/04/01 01:28:57;;;;;;;10.27;2.90;;;;;;;1.35;43.67;99455.25;5005649;28;20209;-72
2022/04/01 01:31:23;;;;;;;11.47;3.17;;;;;;;1.35;43.92;99452.69;5001802;28;20200;-73
2022/04/01 01:33:50;;;;;;;5.13;2.67;;;;;;;1.36;43.72;99453.56;5002207;28;20231;-72
2022/04/01 01:36:17;;;;;;;7.33;3.37;;;;;;;1.37;43.82;99443.25;5009560;28;20211;-73
2022/04/01 01:38:44;;;;;;;5.23;2.80;;;;;;;1.37;44.01;99453.50;5007273;28;20494;-73
2022/04/01 01:41:11;;;;;;;5.50;2.90;;;;;;;1.37;43.86;99450.94;5001923;28;20200;-72
2022/04/01 01:43:41;;;;;;;4.17;2.83;;;;;;;1.37;44.42;99456.09;5007949;28;20786;-73
2022/04/01 01:46:07;;;;;;;6.07;2.80;;;;;;;1.38;44.71;99452.66;5007035;28;20197;-73
2022/04/01 01:48:34;;;;;;;8.30;2.67;;;;;;;1.35;44.81;99447.53;5005007;28;20256;-73
2022/04/01 01:56:28;;;;;;;4.70;2.87;;;;;;;1.35;45.00;99434.69;5007356;28;20251;-72
2022/04/01 01:59:01;;;;;;;4.93;2.57;;;;;;;1.35;45.33;99439.00;5009782;28;20209;-72
2022/04/01 02:01:28;;;;;;;6.33;2.83;;;;;;;1.33;45.53;99434.72;5004429;28;20245;-73
2022/04/01 02:03:54;;;;;;;6.17;3.23;;;;;;;1.33;45.70;99432.13;5011036;28;20205;-73
2022/04/01 02:06:21;;;;;;;9.37;3.40;;;;;;;1.33;45.97;99432.13;5011025;28;20203;-73
2022/04/01 02:08:48;;;;;;;5.93;2.83;;;;;;;1.32;45.97;99439.88;4998771;28;20227;-73
2022/04/01 02:11:14;;;;;;;6.80;2.77;;;;;;;1.31;46.36;99431.31;5009435;28;20709;-73
2022/04/01 02:13:41;;;;;;;5.80;3.13;;;;;;;1.32;46.38;99442.44;5004696;28;20213;-73
2022/04/01 02:16:09;;;;;;;6.27;3.40;;;;;;;1.30;46.21;99434.75;5005156;28;20193;-73
2022/04/01 02:18:35;;;;;;;7.57;3.90;;;;;;;1.29;46.69;99432.19;5006036;28;20209;-70
2022/04/01 02:21:07;;;;;;;8.03;3.80;;;;;;;1.28;46.93;99428.75;5002352;28;20228;-70
2022/04/01 02:23:34;;;;;;;5.73;3.50;;;;;;;1.26;46.73;99433.06;5005926;28;20259;-70
2022/04/01 02:26:01;;;;;;;8.70;3.57;;;;;;;1.27;46.94;99436.50;5008527;28;20197;-72
2022/04/01 02:28:28;;;;;;;4.87;3.10;;;;;;;1.25;46.99;99428.78;5006376;28;20261;-71
2022/04/01 02:30:54;;;;;;;8.10;2.93;;;;;;;1.24;47.07;99427.06;5008840;28;20198;-71
2022/04/01 02:33:42;;;;;;;7.17;3.10;;;;;;;1.21;46.92;99432.22;5006722;28;20573;-71
2022/04/01 02:36:10;;;;;;;6.97;3.50;;;;;;;1.20;47.22;99433.09;5006438;28;20827;-71
2022/04/01 02:38:39;;;;;;;7.13;3.50;;;;;;;1.18;46.84;99436.53;5003484;28;20208;-71
2022/04/01 02:41:07;;;;;;;5.80;3.47;;;;;;;1.19;47.30;99430.53;5007636;28;20204;-71
2022/04/01 02:43:37;;;;;;;4.90;3.00;;;;;;;1.16;46.88;99435.69;5000124;28;20201;-71
2022/04/01 02:46:05;;;;;;;7.17;3.23;;;;;;;1.14;46.44;99435.69;5005223;28;20207;-70
2022/04/01 02:48:34;;;;;;;6.57;3.20;;;;;;;1.14;46.75;99435.69;5004313;28;20682;-71
2022/04/01 02:51:21;;;;;;;5.90;2.97;;;;;;;1.10;46.29;99429.72;5008154;28;20250;-71
2022/04/01 02:53:49;;;;;;;9.07;3.20;;;;;;;1.10;46.65;99440.00;4999123;28;20286;-70
2022/04/01 02:56:16;;;;;;;6.87;3.20;;;;;;;1.07;46.61;99434.91;5007971;28;20238;-70
2022/04/01 02:58:44;;;;;;;5.80;3.10;;;;;;;1.06;46.48;99442.63;5000754;28;20208;-70
2022/04/01 03:01:11;;;;;;;6.67;3.10;;;;;;;1.04;46.14;99442.63;5000587;28;20680;-70
2022/04/01 03:03:38;;;;;;;5.83;3.40;;;;;;;1.02;46.39;99436.66;5000414;28;20772;-69
2022/04/01 03:06:07;;;;;;;7.07;3.50;;;;;;;0.99;46.12;99451.22;5019676;28;20291;-70
2022/04/01 03:08:36;;;;;;;6.30;3.40;;;;;;;0.99;46.14;99448.66;5009603;28;20224;-70
2022/04/01 03:11:02;;;;;;;6.30;3.20;;;;;;;0.97;46.22;99442.66;5005182;28;20227;-70
2022/04/01 03:13:30;;;;;;;6.37;2.77;;;;;;;0.96;46.05;99440.97;5006159;28;20662;-69
2022/04/01 03:16:14;;;;;;;5.90;3.33;;;;;;;0.94;46.11;99453.81;5004260;28;20255;-70
2022/04/01 03:18:46;;;;;;;5.23;3.00;;;;;;;0.92;46.24;99445.28;5006370;28;20202;-70
2022/04/01 03:21:13;;;;;;;5.63;3.20;;;;;;;0.91;46.30;99443.56;5005741;28;20208;-71
2022/04/01 03:23:45;;;;;;;5.67;3.37;;;;;;;0.91;46.42;99444.41;5003073;28;20613;-70
2022/04/01 03:26:15;;;;;;;7.07;3.37;;;;;;;0.88;46.67;99443.56;5001855;28;20203;-70
2022/04/01 03:29:02;;;;;;;7.97;3.20;;;;;;;0.87;46.64;99452.13;5007768;28;20223;-70
2022/04/01 03:31:29;;;;;;;5.90;3.10;;;;;;;0.83;46.41;99456.44;5006671;28;20228;-70
2022/04/01 03:33:58;;;;;;;5.67;3.10;;;;;;;0.86;46.77;99447.84;4998543;28;20313;-70
2022/04/01 03:36:25;;;;;;;4.73;3.20;;;;;;;0.84;46.71;99447.00;5015120;28;20281;-71
2022/04/01 03:38:54;;;;;;;6.23;3.30;;;;;;;0.81;46.83;99447.03;5002388;28;20564;-70
2022/04/01 03:41:37;;;;;;;5.33;3.10;;;;;;;0.78;46.30;99449.63;5008839;28;20239;-70
2022/04/01 03:44:05;;;;;;;5.60;3.30;;;;;;;0.79;46.68;99459.00;5004645;28;20198;-70
2022/04/01 03:46:47;;;;;;;4.93;2.50;;;;;;;0.77;46.58;99458.16;5013726;28;20303;-72
2022/04/01 03:49:18;;;;;;;5.67;3.30;;;;;;;0.73;46.46;99454.78;5003898;28;20205;-72
2022/04/01 03:51:50;;;;;;;4.73;2.83;;;;;;;0.71;46.42;99456.50;5009273;28;20220;-72
2022/04/01 03:54:19;;;;;;;4.70;2.97;;;;;;;0.68;46.17;99465.03;5002265;28;20892;-72
2022/04/01 03:57:04;;;;;;;6.83;3.20;;;;;;;0.67;45.86;99465.91;4994944;28;20254;-71
2022/04/01 03:59:54;;;;;;;6.67;2.87;;;;;;;0.67;45.61;99462.47;4999953;28;20566;-71
2022/04/01 04:02:40;;;;;;;4.67;2.77;;;;;;;0.64;45.69;99471.06;4999514;28;20250;-71
2022/04/01 04:05:09;;;;;;;6.63;3.10;;;;;;;0.63;45.89;99466.78;5023819;28;20830;-71
2022/04/01 04:07:37;;;;;;;5.80;3.27;;;;;;;0.59;45.42;99467.66;5000702;28;20197;-71
2022/04/01 04:10:10;;;;;;;5.00;3.03;;;;;;;0.55;45.03;99478.81;5000726;28;20752;-71
2022/04/01 04:12:57;;;;;;;6.83;3.20;;;;;;;0.53;45.03;99471.09;5008012;28;20228;-71
2022/04/01 04:15:27;;;;;;;6.77;3.70;;;;;;;0.53;45.19;99473.66;5005017;28;20207;-71
2022/04/01 04:17:59;;;;;;;5.70;3.50;;;;;;;0.52;45.22;99471.94;5002293;28;20216;-71
2022/04/01 04:20:34;;;;;;;5.80;2.93;;;;;;;0.48;45.30;99475.41;5007788;28;20197;-71
2022/04/01 04:23:09;;;;;;;7.90;3.20;;;;;;;0.45;44.81;99480.53;5000963;28;20234;-71
2022/04/01 04:25:39;;;;;;;6.80;2.80;;;;;;;0.44;45.09;99478.84;5023357;28;20658;-72
2022/04/01 04:28:10;;;;;;;5.50;3.20;;;;;;;0.44;44.97;99485.66;5003385;28;20201;-71
2022/04/01 04:30:43;;;;;;;7.33;3.10;;;;;;;0.40;44.71;99482.25;5000603;28;20201;-71
2022/04/01 04:33:28;;;;;;;9.23;3.53;;;;;;;0.38;44.71;99484.81;4997605;28;20660;-71
2022/04/01 04:35:56;;;;;;;4.53;2.87;;;;;;;0.37;44.85;99482.28;5010562;28;20196;-73
2022/04/01 04:38:27;;;;;;;7.63;3.50;;;;;;;0.35;45.01;99500.22;5000444;28;20218;-71
2022/04/01 04:40:56;;;;;;;5.40;3.40;;;;;;;0.33;44.48;99491.66;5004448;28;20204;-71
2022/04/01 04:43:23;;;;;;;5.40;3.50;;;;;;;0.32;44.87;99495.09;5004228;28;20232;-71
2022/04/01 04:45:53;;;;;;;3.77;3.07;;;;;;;0.30;44.35;99503.63;5008005;28;20197;-70
2022/04/01 04:48:20;;;;;;;6.40;2.90;;;;;;;0.29;44.26;99504.50;5001597;28;20265;-71
2022/04/01 04:50:49;;;;;;;11.27;3.40;;;;;;;0.27;44.20;99504.50;5005792;28;20316;-71
2022/04/01 04:53:19;;;;;;;7.63;3.03;;;;;;;0.28;44.30;99500.22;5006742;28;20233;-71
2022/04/01 04:55:48;;;;;;;4.77;2.80;;;;;;;0.26;44.11;99501.94;5005328;28;20224;-70
2022/04/01 04:58:23;;;;;;;4.93;2.90;;;;;;;0.25;43.96;99513.09;4999352;28;20276;-71
2022/04/01 05:01:03;;;;;;;5.37;3.20;;;;;;;0.26;44.30;99514.78;5008320;28;20777;-71
2022/04/01 05:04:05;;;;;;;7.57;3.33;;;;;;;0.25;44.14;99510.53;5023625;28;20686;-71
2022/04/01 05:06:39;;;;;;;5.20;2.80;;;;;;;0.25;44.36;99506.22;4997721;28;20205;-71
2022/04/01 05:09:30;;;;;;;6.00;2.97;;;;;;;0.25;44.45;99524.19;5009223;28;20205;-71
2022/04/01 05:12:16;;;;;;;10.37;3.20;;;;;;;0.23;44.11;99509.63;5002732;28;20724;-71
2022/04/01 05:15:08;;;;;;;5.87;3.40;;;;;;;0.25;44.45;99519.06;5006025;28;20213;-71
2022/04/01 05:17:36;;;;;;;7.33;3.17;;;;;;;0.24;44.30;99514.78;5009104;28;20262;-71
2022/04/01 05:20:11;;;;;;;5.90;3.03;;;;;;;0.25;44.25;99518.22;4999521;28;20240;-71
2022/04/01 05:22:49;;;;;;;4.87;3.10;;;;;;;0.26;44.56;99525.88;5020494;23;20243;-72
2022/04/01 05:25:19;;;;;;;7.03;3.93;;;;;;;0.25;44.14;99529.31;5006098;28;20213;-72
2022/04/01 05:27:48;;;;;;;8.47;3.37;;;;;;;0.27;44.24;99537.84;5005605;28;20224;-72
2022/04/01 05:30:30;;;;;;;4.53;3.10;;;;;;;0.26;44.24;99543.81;5006504;28;20686;-71
2022/04/01 05:33:06;;;;;;;7.97;3.30;;;;;;;0.27;44.23;99537.84;5002424;28;20222;-71
2022/04/01 05:35:36;;;;;;;7.73;3.63;;;;;;;0.30;44.70;99537.84;5005010;28;20231;-71
2022/04/01 05:38:04;;;;;;;5.47;3.13;;;;;;;0.30;44.67;99539.53;5001450;28;20704;-72
2022/04/01 05:40:31;;;;;;;6.57;3.17;;;;;;;0.29;44.16;99540.41;5003626;28;20201;-72
2022/04/01 05:43:01;;;;;;;6.63;3.40;;;;;;;0.29;44.19;99541.25;5005024;28;20223;-71
2022/04/01 05:46:03;;;;;;;5.20;3.03;;;;;;;0.30;44.25;99534.41;5005544;28;20205;-71
2022/04/01 05:48:31;;;;;;;6.77;3.70;;;;;;;0.27;44.10;99537.00;5002762;28;20205;-72
2022/04/01 05:50:57;;;;;;;5.50;3.40;;;;;;;0.32;44.50;99533.56;5007736;28;20211;-72
2022/04/01 05:53:29;;;;;;;8.10;3.43;;;;;;;0.34;44.56;99536.97;5018181;28;20232;-72
2022/04/01 05:55:56;;;;;;;6.87;3.50;;;;;;;0.36;44.55;99542.94;5009624;28;20208;-72
2022/04/01 05:58:23;;;;;;;4.40;3.60;;;;;;;0.40;44.85;99541.22;5006924;28;20292;-72
2022/04/01 06:01:01;;;;;;;4.93;3.23;;;;;;;0.42;44.63;99538.66;5004869;28;20205;-72
2022/04/01 06:03:49;;;;;;;6.37;3.47;;;;;;;0.41;45.00;99539.53;5015386;28;20567;-72
2022/04/01 06:06:22;;;;;;;5.30;3.10;;;;;;;0.42;44.69;99531.81;5003898;28;20881;-72
2022/04/01 06:08:57;;;;;;;7.33;3.53;;;;;;;0.48;44.96;99543.81;5015426;28;20265;-72
2022/04/01 06:12:01;;;;;;;5.77;3.50;;;;;;;0.51;44.72;99546.34;5003930;28;20288;-71
2022/04/01 06:14:55;;;;;;;5.93;3.40;;;;;;;0.49;44.93;99548.94;5006207;28;20213;-72
2022/04/01 06:17:46;;;;;;;5.00;3.20;;;;;;;0.49;44.75;99559.19;5004844;28;20573;-71
2022/04/01 06:20:17;;;;;;;5.03;3.40;;;;;;;0.50;44.72;99549.78;5006262;28;20587;-72
2022/04/01 06:22:49;;;;;;;5.37;3.17;;;;;;;0.55;45.17;99548.06;4998802;28;20240;-72
2022/04/01 06:25:20;;;;;;;11.50;3.20;;;;;;;0.56;44.93;99558.31;5005027;28;20634;-72
2022/04/01 06:27:50;;;;;;;4.57;2.90;;;;;;;0.59;44.82;99549.75;5005222;28;20218;-72
2022/04/01 06:30:18;;;;;;;4.87;3.07;;;;;;;0.61;44.76;99558.28;5006981;28;20261;-72
2022/04/01 06:32:59;;;;;;;5.60;3.30;;;;;;;0.69;44.92;99556.56;5005878;28;20249;-71
2022/04/01 06:36:00;;;;;;;5.87;3.20;;;;;;;0.77;45.40;99564.22;4986350;28;20319;-71
2022/04/01 06:38:38;;;;;;;8.63;3.67;;;;;;;0.77;45.00;99573.66;5001090;28;20206;-72
2022/04/01 06:41:07;;;;;;;7.27;3.20;;;;;;;0.81;45.37;99565.06;5001616;28;20214;-71
2022/04/01 06:43:43;;;;;;;4.43;3.23;;;;;;;0.80;44.73;99559.09;5021404;28;20723;-71
2022/04/01 06:46:39;;;;;;;6.27;3.33;;;;;;;0.81;44.78;99576.22;4968505;28;20215;-71
2022/04/01 06:49:16;;;;;;;4.07;3.00;;;;;;;0.88;45.02;99572.75;5004867;28;20291;-71
2022/04/01 06:51:45;;;;;;;6.20;3.20;;;;;;;0.93;45.26;99557.31;5002951;28;20219;-71
2022/04/01 06:54:26;;;;;;;4.63;3.20;;;;;;;1.01;44.69;99567.56;5003278;28;20226;-72
2022/04/01 06:57:12;;;;;;;4.70;3.03;;;;;;;1.06;44.80;99564.13;5007173;28;20207;-72
2022/04/01 06:59:57;;;;;;;8.50;3.27;;;;;;;1.19;45.05;99569.22;5005823;28;20264;-72
2022/04/01 07:02:24;;;;;;;4.70;3.70;;;;;;;1.22;45.11;99554.63;5004469;28;20233;-71
2022/04/01 07:04:50;;;;;;;6.43;3.33;;;;;;;1.23;44.72;99563.19;5008079;28;20205;-72
2022/04/01 07:07:18;;;;;;;3.47;2.80;;;;;;;1.33;45.06;99555.41;5006045;28;20200;-71
2022/04/01 07:09:45;;;;;;;4.27;3.00;;;;;;;1.37;44.75;99570.81;5005362;28;20208;-72
2022/04/01 07:12:12;;;;;;;4.87;3.17;;;;;;;1.33;44.54;99565.69;5002739;28;20225;-72
2022/04/01 07:14:38;;;;;;;8.13;3.03;;;;;;;1.32;44.82;99571.72;5002305;28;20212;-72
2022/04/01 07:17:05;;;;;;;5.20;2.83;;;;;;;1.31;44.92;99569.16;5005659;28;20548;-72
2022/04/01 07:19:31;;;;;;;5.73;3.17;;;;;;;1.33;44.94;99565.69;5005423;28;20205;-71
2022/04/01 07:21:57;;;;;;;5.73;2.90;;;;;;;1.37;45.02;99565.69;5006267;28;20276;-72
2022/04/01 07:24:26;;;;;;;6.20;3.03;;;;;;;1.44;44.99;99560.53;5002813;28;20692;-71
2022/04/01 07:26:52;;;;;;;5.97;3.13;;;;;;;1.48;45.37;99566.50;5007694;28;20196;-71
2022/04/01 07:29:19;;;;;;;4.97;2.83;;;;;;;1.45;44.45;99574.22;5001489;28;20203;-72
2022/04/01 07:34:32;;;;;;;7.63;3.30;;;;;;;1.58;44.99;99575.81;5001506;28;20603;-72
2022/04/01 07:36:59;;;;;;;4.37;2.83;;;;;;;1.55;44.47;99573.28;5001980;28;20213;-72
2022/04/01 07:39:27;;;;;;;5.93;3.10;;;;;;;1.65;45.21;99572.38;5000895;28;20657;-72
2022/04/01 07:41:53;;;;;;;5.50;3.03;;;;;;;1.55;44.64;99572.41;5006143;28;20265;-71
2022/04/01 07:44:20;;;;;;;4.50;2.77;;;;;;;1.60;44.85;99581.84;5002118;28;20665;-72
2022/04/01 07:46:47;;;;;;;4.63;2.80;;;;;;;1.57;44.61;99581.84;5004524;28;20268;-71
2022/04/01 07:49:13;;;;;;;5.37;3.40;;;;;;;1.62;44.83;99574.09;5004716;28;20209;-71
2022/04/01 07:51:40;;;;;;;4.70;2.97;;;;;;;1.68;44.78;99582.63;5004193;28;20219;-72
2022/04/01 07:54:06;;;;;;;5.27;2.70;;;;;;;1.64;44.71;99574.97;5002773;28;20211;-72
2022/04/01 07:56:36;;;;;;;5.77;2.77;;;;;;;1.78;44.55;99582.56;5002563;28;20228;-72
2022/04/01 07:59:02;;;;;;;4.83;3.10;;;;;;;1.80;44.92;99575.69;5004049;28;20220;-72
2022/04/01 08:01:28;;;;;;;3.80;2.50;;;;;;;1.94;44.49;99580.75;5002699;28;20223;-72
2022/04/01 08:03:55;;;;;;;6.00;3.00;;;;;;;2.07;45.21;99584.91;5005021;28;20217;-72
2022/04/01 08:06:21;;;;;;;5.20;3.03;;;;;;;2.08;44.33;99582.31;5002110;28;20296;-72
2022/04/01 08:08:48;;;;;;;7.90;2.60;;;;;;;2.10;44.31;99590.03;5006759;28;20227;-72
2022/04/01 08:11:14;;;;;;;4.23;2.57;;;;;;;2.17;44.07;99590.84;5003082;28;20208;-72
2022/04/01 08:13:42;;;;;;;4.63;2.70;;;;;;;2.24;44.31;99584.78;5006806;28;20231;-72
2022/04/01 08:16:10;;;;;;;6.20;2.47;;;;;;;2.42;44.00;99597.47;5000643;28;20217;-72
2022/04/01 08:18:37;;;;;;;5.17;2.93;;;;;;;2.38;43.53;99589.81;5007218;28;20208;-71
2022/04/01 08:21:03;;;;;;;4.67;2.70;;;;;;;2.38;43.18;99602.66;5001444;28;20208;-72
2022/04/01 08:23:34;;;;;;;4.63;3.10;;;;;;;2.56;43.86;99597.34;5010304;28;20234;-72
2022/04/01 08:26:00;;;;;;;3.50;2.50;;;;;;;2.59;43.06;99601.63;5004417;28;20815;-72
2022/04/01 08:28:27;;;;;;;5.37;2.73;;;;;;;2.55;43.01;99605.06;5007949;28;20201;-72
2022/04/01 08:30:55;;;;;;;4.23;2.60;;;;;;;2.64;42.58;99600.69;5007935;28;20205;-72
2022/04/01 08:33:21;;;;;;;5.13;2.40;;;;;;;2.76;42.59;99614.28;5008798;28;20303;-72
2022/04/01 08:35:48;;;;;;;4.20;2.40;;;;;;;2.91;42.46;99616.72;5003936;28;20229;-71
2022/04/01 08:38:15;;;;;;;6.80;2.97;;;;;;;2.94;42.42;99605.53;5010080;28;20204;-71
2022/04/01 08:40:41;;;;;;;4.10;3.20;;;;;;;2.96;42.60;99612.38;5006087;28;20275;-72
2022/04/01 08:43:08;;;;;;;4.60;3.17;;;;;;;2.99;41.91;99608.88;5005471;28;20232;-72
2022/04/01 08:45:36;;;;;;;6.30;2.80;;;;;;;3.09;42.07;99614.81;5002496;28;20224;-72
2022/04/01 08:48:06;;;;;;;6.37;2.80;;;;;;;3.21;41.81;99612.06;5006315;28;20279;-72
2022/04/01 08:50:32;;;;;;;3.67;2.70;;;;;;;3.19;41.50;99621.56;5003540;28;20251;-72
2022/04/01 08:52:59;;;;;;;7.27;3.53;;;;;;;3.36;41.82;99617.06;5008205;28;20224;-72
2022/04/01 08:55:26;;;;;;;6.67;2.80;;;;;;;3.58;41.22;99615.03;5004217;28;20883;-72
2022/04/01 08:57:52;;;;;;;4.50;2.63;;;;;;;3.53;40.63;99621.13;5006109;28;20205;-72
2022/04/01 09:00:35;;;;;;;5.77;2.90;;;;;;;3.54;40.80;99625.41;5005305;28;20708;-72
2022/04/01 09:03:07;;;;;;;6.83;2.53;;;;;;;3.52;40.10;99627.16;5003664;28;20240;-71
2022/04/01 09:05:34;;;;;;;5.13;2.87;;;;;;;3.58;39.71;99632.22;5007038;28;20196;-72
2022/04/01 09:08:01;;;;;;;3.67;2.40;;;;;;;3.59;39.27;99633.94;5008258;28;20216;-72
2022/04/01 09:10:28;;;;;;;3.47;2.60;;;;;;;3.50;39.44;99639.19;5006581;28;20205;-72
2022/04/01 09:12:55;;;;;;;7.33;3.00;;;;;;;3.59;39.81;99621.06;5007494;28;20216;-72
2022/04/01 09:15:21;;;;;;;7.20;2.50;;;;;;;3.75;39.90;99632.00;5007864;28;20247;-72
2022/04/01 09:17:50;;;;;;;5.23;2.90;;;;;;;3.93;39.78;99630.88;5009839;28;20661;-72
2022/04/01 09:20:18;;;;;;;4.03;2.60;;;;;;;3.79;39.59;99629.34;5009208;28;20209;-72
2022/04/01 09:22:45;;;;;;;4.50;2.13;;;;;;;3.77;39.75;99630.25;5005198;28;20234;-72
2022/04/01 09:25:14;;;;;;;5.67;2.80;;;;;;;3.85;39.46;99624.97;5007288;28;20650;-72
2022/04/01 09:27:43;;;;;;;3.67;2.40;;;;;;;4.00;39.33;99629.06;5004822;28;20205;-72
2022/04/01 09:30:12;;;;;;;3.07;2.40;;;;;;;4.01;39.03;99617.84;5009731;28;20215;-72
2022/04/01 09:32:40;;;;;;;5.13;3.00;;;;;;;4.10;39.39;99628.91;5003915;28;20229;-72
2022/04/01 09:35:07;;;;;;;3.00;2.43;;;;;;;4.09;38.76;99624.59;5008745;28;20618;-72
2022/04/01 09:37:39;;;;;;;5.80;2.30;;;;;;;4.26;39.08;99624.34;5002320;28;20207;-72
2022/04/01 09:40:07;;;;;;;6.10;2.50;;;;;;;4.39;39.14;99631.88;5007821;28;20201;-72
2022/04/01 09:42:33;;;;;;;6.73;2.43;;;;;;;4.58;39.30;99625.53;5003589;28;20223;-72
2022/04/01 09:45:01;;;;;;;5.47;3.33;;;;;;;4.70;38.64;99627.06;5016516;28;20215;-72
2022/04/01 09:47:27;;;;;;;3.70;2.60;;;;;;;4.61;38.34;99630.66;5004021;28;20210;-72
2022/04/01 09:49:54;;;;;;;3.53;2.40;;;;;;;4.73;39.21;99627.84;5007199;28;20197;-72
2022/04/01 09:52:22;;;;;;;3.30;2.40;;;;;;;4.80;38.48;99622.56;5007136;28;20346;-72
2022/04/01 09:54:53;;;;;;;3.60;2.53;;;;;;;4.80;38.27;99632.88;5008808;28;20229;-72
2022/04/01 09:57:22;;;;;;;6.00;2.63;;;;;;;4.64;38.03;99637.47;5004767;28;20227;-72
2022/04/01 09:59:51;;;;;;;5.00;3.43;;;;;;;4.79;38.24;99633.78;5009618;28;20204;-72
2022/04/01 10:02:18;;;;;;;8.37;3.33;;;;;;;4.84;38.25;99634.56;5019569;28;20229;-72
2022/04/01 10:04:44;;;;;;;5.83;3.00;;;;;;;4.85;38.67;99646.56;5006819;28;20209;-72
2022/04/01 10:07:12;;;;;;;4.80;2.50;;;;;;;4.96;38.34;99631.75;5006074;28;20699;-72
2022/04/01 10:09:39;;;;;;;5.17;2.90;;;;;;;5.11;38.38;99625.41;5005019;28;20208;-72
2022/04/01 10:12:11;;;;;;;5.07;2.30;;;;;;;5.11;37.90;99628.84;5006678;28;20359;-72
2022/04/01 10:14:40;;;;;;;8.13;2.93;;;;;;;5.13;38.57;99626.22;5004004;28;20201;-72
2022/04/01 10:17:11;;;;;;;6.90;2.80;;;;;;;5.20;38.07;99626.97;5009109;28;20295;-72
2022/04/01 10:19:40;;;;;;;5.83;3.37;;;;;;;5.21;38.27;99624.34;5005284;28;20201;-72
2022/04/01 10:22:06;;;;;;;6.47;2.70;;;;;;;5.29;38.11;99624.19;5007381;28;20251;-72
2022/04/01 10:24:39;;;;;;;4.20;2.40;;;;;;;5.22;37.92;99618.28;5003103;28;20689;-72
2022/04/01 10:27:15;;;;;;;5.53;2.77;;;;;;;5.47;38.34;99623.81;5009351;28;20565;-72
2022/04/01 10:29:44;;;;;;;4.53;2.40;;;;;;;5.36;37.36;99624.91;5005793;28;20209;-72
2022/04/01 10:32:25;;;;;;;3.53;2.67;;;;;;;5.61;38.22;99620.94;5004921;28;20783;-72
2022/04/01 10:56:28;;;;;;;4.73;3.40;;;;;;;5.85;34.74;99627.28;4975361;28;20324;-72
2022/04/01 10:59:05;;;;;;;5.93;3.43;;;;;;;6.09;34.30;99622.47;4976672;28;20213;-73
2022/04/01 11:01:32;;;;;;;5.30;2.60;;;;;;;6.25;34.30;99628.97;4984240;28;20215;-72
2022/04/01 11:04:02;;;;;;;4.57;2.43;;;;;;;6.27;34.32;99633.28;4994704;28;20535;-72
2022/04/01 11:06:29;;;;;;;4.83;2.57;;;;;;;6.24;33.67;99631.59;5001030;28;20301;-72
2022/04/01 12:21:43;;;;;;;4.93;2.67;;;;;;;6.73;31.43;99642.47;4994986;28;20295;-72
2022/04/01 12:24:09;;;;;;;6.93;2.50;;;;;;;6.76;31.10;99647.59;4993294;28;20207;-73
2022/04/01 12:26:36;;;;;;;3.87;2.40;;;;;;;6.72;31.52;99648.53;4992871;28;20328;-72
2022/04/01 12:29:02;;;;;;;2.93;1.93;;;;;;;6.62;30.84;99645.34;4990602;28;20590;-72
2022/04/01 12:31:28;;;;;;;3.73;2.63;;;;;;;6.56;30.39;99637.72;4974670;28;20215;-72
2022/04/01 12:33:57;;;;;;;6.20;2.13;;;;;;;6.54;30.68;99648.09;4977052;28;20206;-71
2022/04/01 12:36:31;;;;;;;3.83;2.00;;;;;;;6.73;31.57;99642.47;4983866;28;20213;-73
2022/04/01 12:39:05;;;;;;;4.43;2.23;;;;;;;6.73;30.02;99642.47;4983225;28;20245;-73
2022/04/01 12:41:31;;;;;;;6.03;2.40;;;;;;;6.72;30.82;99640.75;4978139;28;20232;-72
2022/04/01 12:44:00;;;;;;;4.33;2.43;;;;;;;6.59;31.12;99638.47;4973729;28;20571;-72
2022/04/01 12:46:30;;;;;;;4.57;2.70;;;;;;;6.73;31.51;99652.84;4968500;28;20218;-73
2022/04/01 12:48:58;;;;;;;3.40;2.10;;;;;;;6.61;30.82;99641.91;4974646;28;20316;-72
2022/04/01 12:51:26;;;;;;;4.37;2.50;;;;;;;6.62;30.85;99643.59;4970175;28;20219;-72
2022/04/01 12:54:02;;;;;;;6.97;2.23;;;;;;;6.53;30.98;99635.22;4975210;28;20217;-72
2022/04/01 12:56:31;;;;;;;5.77;2.57;;;;;;;6.47;31.00;99633.63;4970339;28;20252;-73
2022/04/01 12:59:03;;;;;;;5.43;2.60;;;;;;;6.53;31.19;99638.66;4975497;28;20310;-72
2022/04/01 13:01:30;;;;;;;7.00;2.70;;;;;;;6.54;31.40;99644.69;4978542;28;20198;-72
2022/04/01 13:03:58;;;;;;;5.07;2.20;;;;;;;6.44;30.42;99655.28;4978614;28;20198;-72
2022/04/01 13:06:26;;;;;;;4.53;2.33;;;;;;;6.36;30.38;99648.56;4976339;28;20218;-72
2022/04/01 13:09:14;;;;;;;5.53;2.30;;;;;;;6.42;30.77;99651.88;4977013;28;20292;-72
2022/04/01 13:11:42;;;;;;;6.97;2.23;;;;;;;6.31;30.38;99651.25;4970102;28;20541;-73
2022/04/01 13:14:20;;;;;;;9.43;3.77;;;;;;;6.40;30.76;99652.78;4977303;28;20674;-72
2022/04/01 13:16:47;;;;;;;6.00;2.97;;;;;;;6.33;30.53;99657.28;4973971;28;20249;-72
2022/04/01 13:19:26;;;;;;;10.83;2.53;;;;;;;6.25;30.65;99648.84;4978795;28;20229;-71
2022/04/01 13:21:54;;;;;;;4.90;2.30;;;;;;;6.33;30.63;99648.63;4974102;28;20681;-72
2022/04/01 13:24:25;;;;;;;4.13;2.07;;;;;;;6.37;30.32;99651.13;4972679;28;20197;-72
2022/04/01 13:26:52;;;;;;;9.30;2.10;;;;;;;6.24;29.50;99648.00;4976222;28;20505;-71
2022/04/01 13:29:19;;;;;;;7.63;2.10;;;;;;;6.23;29.53;99643.69;4972809;28;20221;-72
2022/04/01 13:31:46;;;;;;;5.57;2.20;;;;;;;6.26;29.40;99650.53;4975855;28;20741;-72
2022/04/01 13:34:13;;;;;;;4.67;2.23;;;;;;;6.30;29.64;99653.88;4979804;28;20205;-72
2022/04/01 13:36:39;;;;;;;7.80;2.67;;;;;;;6.33;29.50;99646.06;4976715;28;20237;-72
2022/04/01 13:39:07;;;;;;;4.17;1.90;;;;;;;6.34;29.72;99637.41;4974750;28;20221;-72